gordon.dewis.ca
Ick
Well, it looks like the nice weather may be coming to an end. Or interrupted, to say the least: TAF CYOW 171440Z 1715/1812 27018G28KT P6SM BKN040 BKN100 TEMPO 1715/1716 P6SM -SHRA FM172200 31012G22…